sensor_id;sensor_type;location;lat;lon;timestamp;pressure;altitude;pressure_sealevel;temperature;humidity
38812;BME280;24553;51.640;-0.752;2023-01-15T00:00:59;99199.63;;;4.38;100.00
38812;BME280;24553;51.640;-0.752;2023-01-15T00:03:25;99198.47;;;4.41;100.00
38812;BME280;24553;51.640;-0.752;2023-01-15T00:05:50;99199.28;;;4.27;100.00
38812;BME280;24553;51.640;-0.752;2023-01-15T00:08:16;99192.22;;;4.27;100.00
38812;BME280;24553;51.640;-0.752;2023-01-15T00:10:41;99196.94;;;4.32;100.00
38812;BME280;24553;51.640;-0.752;2023-01-15T00:13:06;99185.34;;;4.11;100.00
38812;BME280;24553;51.640;-0.752;2023-01-15T00:15:32;99197.72;;;3.88;100.00
38812;BME280;24553;51.640;-0.752;2023-01-15T00:17:57;99184.06;;;3.78;100.00
38812;BME280;24553;51.640;-0.752;2023-01-15T00:20:22;99187.75;;;3.68;100.00
38812;BME280;24553;51.640;-0.752;2023-01-15T00:22:48;99186.00;;;3.61;100.00
38812;BME280;24553;51.640;-0.752;2023-01-15T00:25:13;99187.28;;;3.65;100.00
38812;BME280;24553;51.640;-0.752;2023-01-15T00:27:57;99190.44;;;3.60;100.00
38812;BME280;24553;51.640;-0.752;2023-01-15T00:30:23;99184.91;;;3.55;100.00
38812;BME280;24553;51.640;-0.752;2023-01-15T00:32:49;99187.69;;;3.54;100.00
38812;BME280;24553;51.640;-0.752;2023-01-15T00:35:18;99187.53;;;3.55;100.00
38812;BME280;24553;51.640;-0.752;2023-01-15T00:37:44;99182.94;;;3.57;100.00
38812;BME280;24553;51.640;-0.752;2023-01-15T00:40:11;99190.69;;;3.50;100.00
38812;BME280;24553;51.640;-0.752;2023-01-15T00:42:36;99192.56;;;3.42;100.00
38812;BME280;24553;51.640;-0.752;2023-01-15T00:45:02;99189.66;;;3.37;100.00
38812;BME280;24553;51.640;-0.752;2023-01-15T00:47:38;99188.94;;;3.43;100.00
38812;BME280;24553;51.640;-0.752;2023-01-15T00:50:05;99181.28;;;3.56;100.00
38812;BME280;24553;51.640;-0.752;2023-01-15T00:52:32;99189.16;;;3.56;100.00
38812;BME280;24553;51.640;-0.752;2023-01-15T00:54:57;99192.34;;;3.66;100.00
38812;BME280;24553;51.640;-0.752;2023-01-15T00:57:22;99176.19;;;3.78;100.00
38812;BME280;24553;51.640;-0.752;2023-01-15T00:59:48;99177.91;;;3.70;100.00
38812;BME280;24553;51.640;-0.752;2023-01-15T01:02:13;99169.25;;;3.85;100.00
38812;BME280;24553;51.640;-0.752;2023-01-15T01:04:39;99170.88;;;3.86;100.00
38812;BME280;24553;51.640;-0.752;2023-01-15T01:07:04;99174.22;;;3.80;100.00
38812;BME280;24553;51.640;-0.752;2023-01-15T01:09:29;99168.53;;;3.91;100.00
38812;BME280;24553;51.640;-0.752;2023-01-15T01:11:55;99173.78;;;3.91;100.00
38812;BME280;24553;51.640;-0.752;2023-01-15T01:14:20;99167.72;;;3.90;100.00
38812;BME280;24553;51.640;-0.752;2023-01-15T01:16:45;99162.72;;;3.81;100.00
38812;BME280;24553;51.640;-0.752;2023-01-15T01:19:14;99173.59;;;3.78;100.00
38812;BME280;24553;51.640;-0.752;2023-01-15T01:21:41;99168.22;;;3.71;100.00
38812;BME280;24553;51.640;-0.752;2023-01-15T01:24:10;99175.31;;;3.85;100.00
38812;BME280;24553;51.640;-0.752;2023-01-15T01:26:35;99180.28;;;3.80;100.00
38812;BME280;24553;51.640;-0.752;2023-01-15T01:29:01;99181.25;;;3.79;100.00
38812;BME280;24553;51.640;-0.752;2023-01-15T01:31:27;99179.44;;;3.65;100.00
38812;BME280;24553;51.640;-0.752;2023-01-15T01:33:54;99178.25;;;3.67;100.00
38812;BME280;24553;51.640;-0.752;2023-01-15T01:36:27;99185.38;;;3.59;100.00
38812;BME280;24553;51.640;-0.752;2023-01-15T01:38:52;99180.13;;;3.59;100.00
38812;BME280;24553;51.640;-0.752;2023-01-15T01:41:18;99186.19;;;3.59;100.00
38812;BME280;24553;51.640;-0.752;2023-01-15T01:46:26;99184.72;;;3.80;100.00
38812;BME280;24553;51.640;-0.752;2023-01-15T01:48:56;99181.31;;;3.71;100.00
38812;BME280;24553;51.640;-0.752;2023-01-15T01:51:25;99187.09;;;3.66;100.00
38812;BME280;24553;51.640;-0.752;2023-01-15T01:53:52;99183.66;;;3.66;100.00
38812;BME280;24553;51.640;-0.752;2023-01-15T01:56:17;99180.13;;;3.59;100.00
38812;BME280;24553;51.640;-0.752;2023-01-15T01:58:47;99181.00;;;3.51;100.00
38812;BME280;24553;51.640;-0.752;2023-01-15T02:01:14;99183.53;;;3.44;100.00
38812;BME280;24553;51.640;-0.752;2023-01-15T02:03:39;99187.25;;;3.50;100.00
38812;BME280;24553;51.640;-0.752;2023-01-15T02:06:07;99186.53;;;3.56;100.00
38812;BME280;24553;51.640;-0.752;2023-01-15T02:08:33;99189.44;;;3.61;100.00
38812;BME280;24553;51.640;-0.752;2023-01-15T02:11:00;99188.22;;;3.72;100.00
38812;BME280;24553;51.640;-0.752;2023-01-15T02:27:37;99188.25;;;3.49;100.00
38812;BME280;24553;51.640;-0.752;2023-01-15T02:30:15;99179.47;;;3.42;100.00
38812;BME280;24553;51.640;-0.752;2023-01-15T02:32:51;99174.75;;;3.37;100.00
38812;BME280;24553;51.640;-0.752;2023-01-15T02:37:52;99172.56;;;3.26;100.00
38812;BME280;24553;51.640;-0.752;2023-01-15T02:40:20;99176.34;;;3.23;100.00
38812;BME280;24553;51.640;-0.752;2023-01-15T02:42:48;99173.22;;;3.20;100.00
38812;BME280;24553;51.640;-0.752;2023-01-15T02:45:17;99172.19;;;3.06;100.00
38812;BME280;24553;51.640;-0.752;2023-01-15T02:47:50;99164.34;;;3.06;100.00
38812;BME280;24553;51.640;-0.752;2023-01-15T02:50:20;99164.50;;;3.04;100.00
38812;BME280;24553;51.640;-0.752;2023-01-15T02:52:50;99160.91;;;3.05;100.00
38812;BME280;24553;51.640;-0.752;2023-01-15T02:55:23;99163.03;;;3.10;100.00
38812;BME280;24553;51.640;-0.752;2023-01-15T02:57:54;99164.19;;;3.31;100.00
38812;BME280;24553;51.640;-0.752;2023-01-15T03:00:21;99149.13;;;3.24;100.00
38812;BME280;24553;51.640;-0.752;2023-01-15T03:02:54;99142.59;;;3.05;100.00
38812;BME280;24553;51.640;-0.752;2023-01-15T03:05:30;99151.66;;;2.95;100.00
38812;BME280;24553;51.640;-0.752;2023-01-15T03:08:02;99150.00;;;2.94;100.00
38812;BME280;24553;51.640;-0.752;2023-01-15T03:10:45;99142.72;;;2.81;100.00
38812;BME280;24553;51.640;-0.752;2023-01-15T03:13:20;99138.66;;;2.78;100.00
38812;BME280;24553;51.640;-0.752;2023-01-15T03:15:57;99146.28;;;2.88;100.00
38812;BME280;24553;51.640;-0.752;2023-01-15T03:19:25;99148.63;;;3.06;100.00
38812;BME280;24553;51.640;-0.752;2023-01-15T03:24:58;99145.38;;;3.04;100.00
38812;BME280;24553;51.640;-0.752;2023-01-15T03:27:26;99156.91;;;2.95;100.00
38812;BME280;24553;51.640;-0.752;2023-01-15T03:30:01;99154.34;;;2.87;100.00
38812;BME280;24553;51.640;-0.752;2023-01-15T03:32:28;99156.97;;;2.87;100.00
38812;BME280;24553;51.640;-0.752;2023-01-15T03:34:55;99160.25;;;2.80;100.00
38812;BME280;24553;51.640;-0.752;2023-01-15T03:37:23;99152.75;;;2.77;100.00
38812;BME280;24553;51.640;-0.752;2023-01-15T03:39:50;99151.13;;;2.76;100.00
38812;BME280;24553;51.640;-0.752;2023-01-15T03:42:38;99159.44;;;2.80;100.00
38812;BME280;24553;51.640;-0.752;2023-01-15T03:53:26;99161.19;;;2.88;100.00
38812;BME280;24553;51.640;-0.752;2023-01-15T03:56:21;99153.41;;;2.79;100.00
38812;BME280;24553;51.640;-0.752;2023-01-15T03:58:56;99159.69;;;2.93;100.00
38812;BME280;24553;51.640;-0.752;2023-01-15T04:01:27;99135.31;;;3.16;100.00
38812;BME280;24553;51.640;-0.752;2023-01-15T04:03:57;99122.66;;;3.19;100.00
38812;BME280;24553;51.640;-0.752;2023-01-15T04:06:25;99118.28;;;3.35;100.00
38812;BME280;24553;51.640;-0.752;2023-01-15T04:08:51;99113.41;;;3.32;100.00
38812;BME280;24553;51.640;-0.752;2023-01-15T04:11:22;99108.50;;;3.28;100.00
38812;BME280;24553;51.640;-0.752;2023-01-15T04:13:49;99119.81;;;3.29;100.00
38812;BME280;24553;51.640;-0.752;2023-01-15T04:16:16;99114.31;;;3.39;100.00
38812;BME280;24553;51.640;-0.752;2023-01-15T04:18:45;99093.28;;;3.47;100.00
38812;BME280;24553;51.640;-0.752;2023-01-15T04:21:10;99108.56;;;3.43;100.00
38812;BME280;24553;51.640;-0.752;2023-01-15T04:23:36;99104.47;;;3.41;100.00
38812;BME280;24553;51.640;-0.752;2023-01-15T04:26:01;99116.47;;;3.35;100.00
38812;BME280;24553;51.640;-0.752;2023-01-15T04:28:26;99115.78;;;3.41;100.00
38812;BME280;24553;51.640;-0.752;2023-01-15T04:30:51;99094.53;;;3.51;100.00
38812;BME280;24553;51.640;-0.752;2023-01-15T04:33:20;99100.78;;;3.65;100.00
38812;BME280;24553;51.640;-0.752;2023-01-15T04:35:45;99114.44;;;3.60;100.00
38812;BME280;24553;51.640;-0.752;2023-01-15T04:38:11;99105.56;;;3.61;100.00
38812;BME280;24553;51.640;-0.752;2023-01-15T04:40:36;99105.94;;;3.58;100.00
38812;BME280;24553;51.640;-0.752;2023-01-15T04:43:20;99097.00;;;3.67;100.00
38812;BME280;24553;51.640;-0.752;2023-01-15T04:46:04;99092.94;;;3.65;100.00
38812;BME280;24553;51.640;-0.752;2023-01-15T04:48:29;99096.16;;;3.82;100.00
38812;BME280;24553;51.640;-0.752;2023-01-15T04:50:55;99098.63;;;3.68;100.00
38812;BME280;24553;51.640;-0.752;2023-01-15T04:53:21;99092.28;;;3.63;100.00
38812;BME280;24553;51.640;-0.752;2023-01-15T04:55:46;99091.47;;;3.62;100.00
38812;BME280;24553;51.640;-0.752;2023-01-15T04:58:11;99079.28;;;3.69;100.00
38812;BME280;24553;51.640;-0.752;2023-01-15T05:00:37;99084.59;;;3.61;100.00
38812;BME280;24553;51.640;-0.752;2023-01-15T05:03:02;99078.19;;;3.64;100.00
38812;BME280;24553;51.640;-0.752;2023-01-15T05:05:27;99084.69;;;3.53;100.00
38812;BME280;24553;51.640;-0.752;2023-01-15T05:07:53;99072.94;;;3.49;100.00
38812;BME280;24553;51.640;-0.752;2023-01-15T05:10:18;99065.91;;;3.49;100.00
38812;BME280;24553;51.640;-0.752;2023-01-15T05:12:43;99084.69;;;3.53;100.00
38812;BME280;24553;51.640;-0.752;2023-01-15T05:15:09;99057.31;;;3.56;100.00
38812;BME280;24553;51.640;-0.752;2023-01-15T05:17:34;99072.84;;;3.57;100.00
38812;BME280;24553;51.640;-0.752;2023-01-15T05:19:59;99068.44;;;3.58;100.00
38812;BME280;24553;51.640;-0.752;2023-01-15T05:22:25;99072.06;;;3.57;100.00
38812;BME280;24553;51.640;-0.752;2023-01-15T05:24:50;99060.94;;;3.69;100.00
38812;BME280;24553;51.640;-0.752;2023-01-15T05:27:16;99068.50;;;3.79;100.00
38812;BME280;24553;51.640;-0.752;2023-01-15T05:29:41;99072.66;;;3.74;100.00
38812;BME280;24553;51.640;-0.752;2023-01-15T05:32:06;99072.13;;;3.63;100.00
38812;BME280;24553;51.640;-0.752;2023-01-15T05:34:32;99077.38;;;3.63;100.00
38812;BME280;24553;51.640;-0.752;2023-01-15T05:36:57;99090.94;;;3.52;100.00
38812;BME280;24553;51.640;-0.752;2023-01-15T05:39:22;99083.78;;;3.61;100.00
38812;BME280;24553;51.640;-0.752;2023-01-15T05:41:48;99083.63;;;3.77;100.00
38812;BME280;24553;51.640;-0.752;2023-01-15T05:44:15;99081.06;;;3.99;100.00
38812;BME280;24553;51.640;-0.752;2023-01-15T05:46:41;99066.50;;;4.11;100.00
38812;BME280;24553;51.640;-0.752;2023-01-15T05:49:10;99059.72;;;4.02;100.00
38812;BME280;24553;51.640;-0.752;2023-01-15T05:51:36;99064.69;;;4.11;100.00
38812;BME280;24553;51.640;-0.752;2023-01-15T05:54:03;99084.50;;;4.14;100.00
38812;BME280;24553;51.640;-0.752;2023-01-15T05:56:28;99055.44;;;4.15;100.00
38812;BME280;24553;51.640;-0.752;2023-01-15T05:58:54;99058.28;;;3.99;100.00
38812;BME280;24553;51.640;-0.752;2023-01-15T06:01:20;99066.88;;;3.93;100.00
38812;BME280;24553;51.640;-0.752;2023-01-15T06:03:45;99063.19;;;3.87;100.00
38812;BME280;24553;51.640;-0.752;2023-01-15T06:06:13;99061.28;;;3.81;100.00
38812;BME280;24553;51.640;-0.752;2023-01-15T06:08:39;99058.75;;;3.88;100.00
38812;BME280;24553;51.640;-0.752;2023-01-15T06:11:05;99065.50;;;3.97;100.00
38812;BME280;24553;51.640;-0.752;2023-01-15T06:13:31;99036.94;;;4.02;100.00
38812;BME280;24553;51.640;-0.752;2023-01-15T06:15:58;99031.13;;;4.07;100.00
38812;BME280;24553;51.640;-0.752;2023-01-15T06:18:24;99054.03;;;3.98;100.00
38812;BME280;24553;51.640;-0.752;2023-01-15T06:20:49;99042.66;;;3.91;100.00
38812;BME280;24553;51.640;-0.752;2023-01-15T06:23:16;99053.03;;;3.84;100.00
38812;BME280;24553;51.640;-0.752;2023-01-15T06:25:41;99050.53;;;3.76;100.00
38812;BME280;24553;51.640;-0.752;2023-01-15T06:28:07;99050.88;;;3.58;100.00
38812;BME280;24553;51.640;-0.752;2023-01-15T06:30:33;99051.63;;;3.52;100.00
38812;BME280;24553;51.640;-0.752;2023-01-15T06:32:59;99058.66;;;3.52;100.00
38812;BME280;24553;51.640;-0.752;2023-01-15T06:35:24;99047.72;;;3.48;100.00
38812;BME280;24553;51.640;-0.752;2023-01-15T06:37:50;99058.13;;;3.41;100.00
38812;BME280;24553;51.640;-0.752;2023-01-15T06:40:16;99066.63;;;3.43;100.00
38812;BME280;24553;51.640;-0.752;2023-01-15T06:42:41;99040.31;;;3.52;100.00
38812;BME280;24553;51.640;-0.752;2023-01-15T06:45:35;99040.06;;;3.46;100.00
38812;BME280;24553;51.640;-0.752;2023-01-15T06:48:19;99056.84;;;3.37;100.00
38812;BME280;24553;51.640;-0.752;2023-01-15T06:50:45;99060.63;;;3.35;100.00
38812;BME280;24553;51.640;-0.752;2023-01-15T06:53:10;99062.19;;;3.44;100.00
38812;BME280;24553;51.640;-0.752;2023-01-15T06:55:35;99056.56;;;3.32;100.00
38812;BME280;24553;51.640;-0.752;2023-01-15T06:58:04;99040.22;;;3.45;100.00
38812;BME280;24553;51.640;-0.752;2023-01-15T07:00:29;99046.47;;;3.44;100.00
38812;BME280;24553;51.640;-0.752;2023-01-15T07:02:55;99060.09;;;3.39;100.00
38812;BME280;24553;51.640;-0.752;2023-01-15T07:05:23;99055.59;;;3.48;100.00
38812;BME280;24553;51.640;-0.752;2023-01-15T07:07:48;99051.16;;;3.63;100.00
38812;BME280;24553;51.640;-0.752;2023-01-15T07:10:14;99075.56;;;3.79;100.00
38812;BME280;24553;51.640;-0.752;2023-01-15T07:12:39;99043.72;;;3.82;100.00
38812;BME280;24553;51.640;-0.752;2023-01-15T07:15:04;99055.94;;;3.89;100.00
38812;BME280;24553;51.640;-0.752;2023-01-15T07:17:30;99039.50;;;3.81;100.00
38812;BME280;24553;51.640;-0.752;2023-01-15T07:19:55;99044.56;;;3.82;100.00
38812;BME280;24553;51.640;-0.752;2023-01-15T07:22:20;99050.78;;;3.66;100.00
38812;BME280;24553;51.640;-0.752;2023-01-15T07:24:46;99047.00;;;3.84;100.00
38812;BME280;24553;51.640;-0.752;2023-01-15T07:27:11;99040.19;;;3.89;100.00
38812;BME280;24553;51.640;-0.752;2023-01-15T07:29:36;99041.38;;;3.87;100.00
38812;BME280;24553;51.640;-0.752;2023-01-15T07:32:02;99046.38;;;3.67;100.00
38812;BME280;24553;51.640;-0.752;2023-01-15T07:34:27;99035.81;;;3.75;100.00
38812;BME280;24553;51.640;-0.752;2023-01-15T07:36:53;99052.44;;;3.67;100.00
38812;BME280;24553;51.640;-0.752;2023-01-15T07:39:18;99056.94;;;3.74;100.00
38812;BME280;24553;51.640;-0.752;2023-01-15T07:41:43;99043.03;;;3.88;100.00
38812;BME280;24553;51.640;-0.752;2023-01-15T07:44:27;99055.50;;;3.86;100.00
38812;BME280;24553;51.640;-0.752;2023-01-15T07:47:16;99050.41;;;3.99;100.00
38812;BME280;24553;51.640;-0.752;2023-01-15T07:50:02;99043.44;;;4.06;100.00
38812;BME280;24553;51.640;-0.752;2023-01-15T07:52:28;99051.47;;;4.05;100.00
38812;BME280;24553;51.640;-0.752;2023-01-15T07:54:53;99046.06;;;4.06;100.00
38812;BME280;24553;51.640;-0.752;2023-01-15T07:57:20;99047.06;;;4.05;100.00
38812;BME280;24553;51.640;-0.752;2023-01-15T07:59:46;99052.13;;;3.92;100.00
38812;BME280;24553;51.640;-0.752;2023-01-15T08:02:11;99048.16;;;3.81;100.00
38812;BME280;24553;51.640;-0.752;2023-01-15T08:04:37;99049.97;;;3.81;100.00
38812;BME280;24553;51.640;-0.752;2023-01-15T08:07:03;99045.91;;;3.93;100.00
38812;BME280;24553;51.640;-0.752;2023-01-15T08:09:29;99052.59;;;3.96;100.00
38812;BME280;24553;51.640;-0.752;2023-01-15T08:11:57;99043.69;;;4.11;100.00
38812;BME280;24553;51.640;-0.752;2023-01-15T08:14:41;99062.06;;;4.11;100.00
38812;BME280;24553;51.640;-0.752;2023-01-15T08:17:25;99066.69;;;4.09;100.00
38812;BME280;24553;51.640;-0.752;2023-01-15T08:19:51;99060.69;;;4.15;100.00
38812;BME280;24553;51.640;-0.752;2023-01-15T08:22:16;99052.47;;;4.19;100.00
38812;BME280;24553;51.640;-0.752;2023-01-15T08:24:41;99056.44;;;4.14;100.00
38812;BME280;24553;51.640;-0.752;2023-01-15T08:27:06;99075.44;;;4.17;100.00
38812;BME280;24553;51.640;-0.752;2023-01-15T08:29:32;99069.16;;;4.32;100.00
38812;BME280;24553;51.640;-0.752;2023-01-15T08:31:57;99064.72;;;4.33;100.00
38812;BME280;24553;51.640;-0.752;2023-01-15T08:34:23;99070.06;;;4.40;100.00
38812;BME280;24553;51.640;-0.752;2023-01-15T08:36:48;99078.50;;;4.56;100.00
38812;BME280;24553;51.640;-0.752;2023-01-15T08:39:14;99073.50;;;4.62;100.00
38812;BME280;24553;51.640;-0.752;2023-01-15T08:41:39;99084.59;;;4.57;100.00
38812;BME280;24553;51.640;-0.752;2023-01-15T08:44:05;99086.03;;;4.59;100.00
38812;BME280;24553;51.640;-0.752;2023-01-15T08:46:30;99091.28;;;4.59;100.00
38812;BME280;24553;51.640;-0.752;2023-01-15T08:48:56;99092.78;;;4.69;100.00
38812;BME280;24553;51.640;-0.752;2023-01-15T08:51:21;99085.66;;;4.84;100.00
38812;BME280;24553;51.640;-0.752;2023-01-15T08:53:46;99086.03;;;4.81;100.00
38812;BME280;24553;51.640;-0.752;2023-01-15T08:56:16;99086.75;;;4.75;100.00
38812;BME280;24553;51.640;-0.752;2023-01-15T08:58:42;99095.34;;;4.84;100.00
38812;BME280;24553;51.640;-0.752;2023-01-15T09:01:09;99098.66;;;4.92;100.00
38812;BME280;24553;51.640;-0.752;2023-01-15T09:03:36;99088.13;;;4.92;100.00
38812;BME280;24553;51.640;-0.752;2023-01-15T09:06:02;99083.75;;;4.99;100.00
38812;BME280;24553;51.640;-0.752;2023-01-15T09:08:30;99085.53;;;5.14;100.00
38812;BME280;24553;51.640;-0.752;2023-01-15T09:10:57;99081.72;;;5.23;100.00
38812;BME280;24553;51.640;-0.752;2023-01-15T09:13:23;99101.19;;;5.29;100.00
38812;BME280;24553;51.640;-0.752;2023-01-15T09:15:48;99100.63;;;5.33;100.00
38812;BME280;24553;51.640;-0.752;2023-01-15T09:18:14;99091.34;;;5.37;100.00
38812;BME280;24553;51.640;-0.752;2023-01-15T09:20:43;99089.81;;;5.50;100.00
38812;BME280;24553;51.640;-0.752;2023-01-15T09:23:09;99088.00;;;5.50;100.00
38812;BME280;24553;51.640;-0.752;2023-01-15T09:25:34;99092.19;;;5.73;100.00
38812;BME280;24553;51.640;-0.752;2023-01-15T09:27:59;99089.50;;;5.94;100.00
38812;BME280;24553;51.640;-0.752;2023-01-15T09:30:25;99081.16;;;5.90;100.00
38812;BME280;24553;51.640;-0.752;2023-01-15T09:32:50;99086.97;;;5.79;100.00
38812;BME280;24553;51.640;-0.752;2023-01-15T09:35:15;99083.75;;;5.84;100.00
38812;BME280;24553;51.640;-0.752;2023-01-15T09:37:41;99095.38;;;5.96;100.00
38812;BME280;24553;51.640;-0.752;2023-01-15T09:40:22;99094.13;;;5.92;100.00
38812;BME280;24553;51.640;-0.752;2023-01-15T09:42:59;99108.06;;;5.93;100.00
38812;BME280;24553;51.640;-0.752;2023-01-15T09:45:36;99098.53;;;6.20;100.00
38812;BME280;24553;51.640;-0.752;2023-01-15T09:56:56;99132.47;;;6.49;100.00
38812;BME280;24553;51.640;-0.752;2023-01-15T09:59:43;99128.44;;;6.53;100.00
38812;BME280;24553;51.640;-0.752;2023-01-15T10:02:21;99153.16;;;6.66;100.00
38812;BME280;24553;51.640;-0.752;2023-01-15T10:04:54;99155.44;;;6.75;100.00
38812;BME280;24553;51.640;-0.752;2023-01-15T10:07:28;99150.38;;;6.74;100.00
38812;BME280;24553;51.640;-0.752;2023-01-15T10:10:01;99174.28;;;6.72;100.00
38812;BME280;24553;51.640;-0.752;2023-01-15T10:12:29;99167.75;;;6.62;100.00
38812;BME280;24553;51.640;-0.752;2023-01-15T10:17:49;99162.69;;;6.60;100.00
38812;BME280;24553;51.640;-0.752;2023-01-15T10:23:12;99170.50;;;7.02;100.00
38812;BME280;24553;51.640;-0.752;2023-01-15T10:25:50;99173.75;;;7.17;100.00
38812;BME280;24553;51.640;-0.752;2023-01-15T10:28:24;99168.50;;;7.24;100.00
38812;BME280;24553;51.640;-0.752;2023-01-15T10:30:54;99184.13;;;7.32;100.00
38812;BME280;24553;51.640;-0.752;2023-01-15T10:36:23;99185.53;;;7.28;100.00
38812;BME280;24553;51.640;-0.752;2023-01-15T10:42:26;99191.63;;;7.35;100.00
38812;BME280;24553;51.640;-0.752;2023-01-15T10:45:26;99198.75;;;7.41;100.00
38812;BME280;24553;51.640;-0.752;2023-01-15T10:48:02;99182.31;;;7.46;100.00
38812;BME280;24553;51.640;-0.752;2023-01-15T10:50:31;99193.06;;;7.51;100.00
38812;BME280;24553;51.640;-0.752;2023-01-15T10:55:44;99194.28;;;7.48;100.00
38812;BME280;24553;51.640;-0.752;2023-01-15T10:58:36;99194.50;;;7.47;100.00
38812;BME280;24553;51.640;-0.752;2023-01-15T11:01:25;99187.56;;;7.32;100.00
38812;BME280;24553;51.640;-0.752;2023-01-15T11:03:51;99180.06;;;7.16;100.00
38812;BME280;24553;51.640;-0.752;2023-01-15T11:06:20;99194.84;;;7.04;100.00
38812;BME280;24553;51.640;-0.752;2023-01-15T11:08:53;99178.06;;;7.31;100.00
38812;BME280;24553;51.640;-0.752;2023-01-15T11:14:14;99189.78;;;7.22;100.00
38812;BME280;24553;51.640;-0.752;2023-01-15T11:16:58;99184.13;;;7.18;100.00
38812;BME280;24553;51.640;-0.752;2023-01-15T11:19:34;99183.47;;;7.10;100.00
38812;BME280;24553;51.640;-0.752;2023-01-15T11:24:51;99177.25;;;7.57;100.00
38812;BME280;24553;51.640;-0.752;2023-01-15T11:27:21;99170.75;;;7.60;100.00
38812;BME280;24553;51.640;-0.752;2023-01-15T11:29:53;99176.84;;;7.60;100.00
38812;BME280;24553;51.640;-0.752;2023-01-15T11:32:38;99176.03;;;7.73;100.00
38812;BME280;24553;51.640;-0.752;2023-01-15T11:37:33;99180.91;;;7.83;100.00
38812;BME280;24553;51.640;-0.752;2023-01-15T11:40:00;99177.44;;;7.89;100.00
38812;BME280;24553;51.640;-0.752;2023-01-15T11:42:32;99185.13;;;7.97;100.00
38812;BME280;24553;51.640;-0.752;2023-01-15T11:45:18;99183.94;;;7.93;100.00
38812;BME280;24553;51.640;-0.752;2023-01-15T11:48:45;99178.03;;;7.98;100.00
38812;BME280;24553;51.640;-0.752;2023-01-15T11:51:33;99176.41;;;7.97;100.00
38812;BME280;24553;51.640;-0.752;2023-01-15T11:54:04;99178.44;;;7.95;100.00
38812;BME280;24553;51.640;-0.752;2023-01-15T11:56:34;99176.13;;;8.25;100.00
38812;BME280;24553;51.640;-0.752;2023-01-15T11:59:02;99179.00;;;8.17;100.00
38812;BME280;24553;51.640;-0.752;2023-01-15T12:01:37;99159.06;;;8.21;100.00
38812;BME280;24553;51.640;-0.752;2023-01-15T12:04:54;99160.06;;;8.40;100.00
38812;BME280;24553;51.640;-0.752;2023-01-15T12:07:12;99150.28;;;8.34;100.00
38812;BME280;24553;51.640;-0.752;2023-01-15T12:10:26;99161.94;;;8.13;100.00
38812;BME280;24553;51.640;-0.752;2023-01-15T12:15:28;99158.97;;;7.76;100.00
38812;BME280;24553;51.640;-0.752;2023-01-15T12:20:56;99143.34;;;7.68;100.00
38812;BME280;24553;51.640;-0.752;2023-01-15T12:23:50;99143.53;;;7.86;100.00
38812;BME280;24553;51.640;-0.752;2023-01-15T12:26:30;99148.81;;;7.86;100.00
38812;BME280;24553;51.640;-0.752;2023-01-15T12:34:26;99136.38;;;8.06;100.00
38812;BME280;24553;51.640;-0.752;2023-01-15T12:36:57;99130.91;;;8.01;100.00
38812;BME280;24553;51.640;-0.752;2023-01-15T12:39:35;99134.53;;;8.14;100.00
38812;BME280;24553;51.640;-0.752;2023-01-15T12:42:07;99136.16;;;8.21;100.00
38812;BME280;24553;51.640;-0.752;2023-01-15T12:44:55;99127.75;;;8.31;100.00
38812;BME280;24553;51.640;-0.752;2023-01-15T12:50:31;99122.84;;;8.55;100.00
38812;BME280;24553;51.640;-0.752;2023-01-15T12:53:26;99118.59;;;8.47;100.00
38812;BME280;24553;51.640;-0.752;2023-01-15T12:58:41;99121.34;;;8.14;100.00
38812;BME280;24553;51.640;-0.752;2023-01-15T13:06:52;99105.41;;;8.34;100.00
38812;BME280;24553;51.640;-0.752;2023-01-15T13:12:18;99108.88;;;8.34;100.00
38812;BME280;24553;51.640;-0.752;2023-01-15T13:14:43;99112.56;;;8.20;100.00
38812;BME280;24553;51.640;-0.752;2023-01-15T13:22:25;99091.19;;;8.41;100.00
38812;BME280;24553;51.640;-0.752;2023-01-15T13:25:37;99087.47;;;8.49;100.00
38812;BME280;24553;51.640;-0.752;2023-01-15T13:28:21;99099.09;;;8.48;100.00
38812;BME280;24553;51.640;-0.752;2023-01-15T13:33:46;99096.78;;;8.06;100.00
38812;BME280;24553;51.640;-0.752;2023-01-15T13:36:17;99089.66;;;8.14;100.00
38812;BME280;24553;51.640;-0.752;2023-01-15T13:38:48;99099.00;;;8.09;100.00
38812;BME280;24553;51.640;-0.752;2023-01-15T13:41:34;99076.03;;;8.17;100.00
38812;BME280;24553;51.640;-0.752;2023-01-15T13:47:01;99080.28;;;8.18;100.00
38812;BME280;24553;51.640;-0.752;2023-01-15T13:49:54;99084.47;;;8.45;100.00
38812;BME280;24553;51.640;-0.752;2023-01-15T13:52:30;99069.88;;;8.29;100.00
38812;BME280;24553;51.640;-0.752;2023-01-15T13:55:08;99069.91;;;8.23;100.00
38812;BME280;24553;51.640;-0.752;2023-01-15T13:57:37;99066.44;;;8.29;100.00
38812;BME280;24553;51.640;-0.752;2023-01-15T14:00:05;99058.72;;;8.27;100.00
38812;BME280;24553;51.640;-0.752;2023-01-15T14:02:33;99053.53;;;8.07;100.00
38812;BME280;24553;51.640;-0.752;2023-01-15T14:05:00;99052.88;;;8.19;100.00
38812;BME280;24553;51.640;-0.752;2023-01-15T14:07:37;99042.50;;;8.24;100.00
38812;BME280;24553;51.640;-0.752;2023-01-15T14:21:40;99040.38;;;7.94;100.00
38812;BME280;24553;51.640;-0.752;2023-01-15T14:24:16;99045.47;;;7.96;100.00
38812;BME280;24553;51.640;-0.752;2023-01-15T14:27:21;99048.91;;;7.96;100.00
38812;BME280;24553;51.640;-0.752;2023-01-15T14:32:45;99049.94;;;7.95;100.00
38812;BME280;24553;51.640;-0.752;2023-01-15T14:35:22;99035.91;;;7.95;100.00
38812;BME280;24553;51.640;-0.752;2023-01-15T14:37:53;99040.78;;;7.98;100.00
38812;BME280;24553;51.640;-0.752;2023-01-15T14:40:21;99031.00;;;8.05;100.00
38812;BME280;24553;51.640;-0.752;2023-01-15T14:42:50;99040.19;;;7.89;100.00
38812;BME280;24553;51.640;-0.752;2023-01-15T14:45:37;99042.03;;;7.82;100.00
38812;BME280;24553;51.640;-0.752;2023-01-15T14:50:52;99023.16;;;7.85;100.00
38812;BME280;24553;51.640;-0.752;2023-01-15T14:56:03;99027.19;;;7.94;100.00
38812;BME280;24553;51.640;-0.752;2023-01-15T14:58:45;99019.69;;;7.98;100.00
38812;BME280;24553;51.640;-0.752;2023-01-15T15:01:26;99023.75;;;7.94;100.00
38812;BME280;24553;51.640;-0.752;2023-01-15T15:04:03;99017.84;;;7.92;100.00
38812;BME280;24553;51.640;-0.752;2023-01-15T15:06:31;99025.41;;;7.81;100.00